Terminal Aerodrome Forecast
Issued by NWS Northern Indiana

Home | Current Version | Previous Version | Graphics & Text | Print | Product List | Glossary On
Versions: 1 2 3 4 5 6 7 8 9 10 11 12
000
FTUS43 KIWX 250500
TAFFWA
TAF
KFWA 250520Z 2506/2606 25015KT P6SM VCSH OVC012
     FM251300 24012KT P6SM OVC015
     FM252000 23010KT P6SM BKN020
     FM252200 20008KT P6SM FEW020 BKN250=

USA.gov is the U.S. government's official web portal to all federal, state and local government web resources and services.